createdAt,value
2018-01-06T00:00:38.058Z,8.73
2018-01-06T00:01:39.177Z,6.25
2018-01-06T00:02:40.530Z,7.43
2018-01-06T00:03:41.678Z,7.30
2018-01-06T00:04:42.781Z,9.00
2018-01-06T00:05:43.910Z,7.82
2018-01-06T00:06:45.774Z,11.02
2018-01-06T00:07:46.892Z,6.97
2018-01-06T00:08:48.754Z,6.00
2018-01-06T00:09:49.878Z,7.18
2018-01-06T00:10:51.740Z,10.07
2018-01-06T00:11:53.595Z,6.40
2018-01-06T00:12:54.709Z,7.07
2018-01-06T00:13:56.621Z,6.75
2018-01-06T00:14:57.699Z,6.43
2018-01-06T00:15:58.812Z,6.82
2018-01-06T00:16:59.895Z,7.32
2018-01-06T00:18:01.034Z,6.78
2018-01-06T00:19:02.107Z,6.10
2018-01-06T00:20:03.251Z,5.72
2018-01-06T00:21:04.368Z,8.43
2018-01-06T00:22:05.451Z,6.18
2018-01-06T00:23:06.574Z,4.90
2018-01-06T00:24:07.706Z,6.60
2018-01-06T00:25:09.549Z,8.15
2018-01-06T00:26:10.649Z,5.00
2018-01-06T00:27:11.766Z,6.43
2018-01-06T00:28:12.886Z,7.37
2018-01-06T00:29:14.015Z,5.75
2018-01-06T00:30:15.125Z,6.68
2018-01-06T00:31:16.237Z,5.90
2018-01-06T00:32:18.089Z,6.57
2018-01-06T00:33:19.221Z,6.75
2018-01-06T00:34:21.066Z,5.75
2018-01-06T00:35:22.184Z,7.80
2018-01-06T00:36:23.309Z,8.55
2018-01-06T00:37:24.408Z,5.68
2018-01-06T00:38:25.491Z,8.75
2018-01-06T00:39:26.643Z,5.97
2018-01-06T00:40:28.456Z,7.20
2018-01-06T00:41:29.535Z,5.72
2018-01-06T00:42:30.611Z,5.95
2018-01-06T00:43:31.733Z,9.80
2018-01-06T00:44:32.842Z,6.95
2018-01-06T00:45:33.943Z,6.07
2018-01-06T00:46:35.820Z,6.50
2018-01-06T00:47:36.884Z,5.85
2018-01-06T00:48:37.955Z,6.70
2018-01-06T00:49:39.073Z,6.43
2018-01-06T00:50:47.167Z,9.50
2018-01-06T00:51:48.322Z,7.07
2018-01-06T00:52:50.124Z,7.60
2018-01-06T00:53:51.250Z,7.57
2018-01-06T00:54:52.331Z,8.20
2018-01-06T00:55:53.395Z,7.70
2018-01-06T00:56:54.472Z,7.35
2018-01-06T00:57:55.600Z,6.35
2018-01-06T00:58:56.683Z,10.02
2018-01-06T00:59:58.557Z,9.43
2018-01-06T01:00:59.640Z,5.78
2018-01-06T01:02:01.474Z,6.37
2018-01-06T01:03:02.624Z,7.25
2018-01-06T01:04:04.509Z,7.47
2018-01-06T01:05:05.591Z,6.62
2018-01-06T01:06:06.679Z,5.45
2018-01-06T01:07:07.796Z,8.02
2018-01-06T01:08:08.971Z,8.85
2018-01-06T01:09:10.079Z,6.72
2018-01-06T01:10:11.910Z,5.70
2018-01-06T01:11:13.013Z,7.15
2018-01-06T01:12:14.868Z,5.32
2018-01-06T01:13:15.932Z,7.25
2018-01-06T01:14:17.777Z,9.73
2018-01-06T01:15:18.872Z,6.90
2018-01-06T01:16:19.970Z,6.22
2018-01-06T01:17:21.067Z,7.22
2018-01-06T01:18:22.891Z,6.10
2018-01-06T01:19:23.993Z,7.37
2018-01-06T01:20:25.083Z,8.38
2018-01-06T01:21:26.971Z,6.65
2018-01-06T01:22:28.064Z,5.47
2018-01-06T01:23:29.160Z,7.00
2018-01-06T01:24:30.255Z,7.07
2018-01-06T01:25:31.359Z,7.28
2018-01-06T01:26:33.179Z,7.62
2018-01-06T01:27:34.268Z,9.77
2018-01-06T01:28:35.369Z,7.60
2018-01-06T01:29:36.460Z,9.52
2018-01-06T01:30:37.536Z,7.28
2018-01-06T01:31:38.623Z,7.80
2018-01-06T01:32:39.711Z,6.62
2018-01-06T01:33:40.819Z,7.87
2018-01-06T01:34:41.912Z,6.03
2018-01-06T01:35:43.011Z,5.15
2018-01-06T01:36:44.123Z,6.43
2018-01-06T01:37:45.959Z,6.28
2018-01-06T01:38:47.042Z,6.93
2018-01-06T01:39:48.142Z,5.85
2018-01-06T01:40:49.239Z,7.22
2018-01-06T01:41:50.323Z,6.05
2018-01-06T01:42:52.176Z,5.68
2018-01-06T01:43:54.032Z,9.45
2018-01-06T01:44:55.123Z,7.20
2018-01-06T01:45:56.231Z,7.68
2018-01-06T01:46:57.315Z,7.07
2018-01-06T01:47:59.150Z,6.93
2018-01-06T01:49:01.012Z,6.37
2018-01-06T01:50:02.127Z,6.25
2018-01-06T01:51:03.215Z,5.18
2018-01-06T01:52:04.304Z,8.20
2018-01-06T01:53:05.387Z,7.30
2018-01-06T01:54:06.490Z,10.95
2018-01-06T01:55:07.609Z,8.18
2018-01-06T01:56:09.443Z,10.80
2018-01-06T01:57:10.548Z,9.57
2018-01-06T01:58:11.657Z,7.57
2018-01-06T01:59:12.776Z,7.75
2018-01-06T02:00:13.867Z,7.65
2018-01-06T02:01:14.960Z,7.45
2018-01-06T02:02:16.044Z,6.00
2018-01-06T02:03:17.148Z,7.47
2018-01-06T02:04:18.281Z,6.82
2018-01-06T02:05:19.362Z,6.05
2018-01-06T02:06:21.195Z,8.13
2018-01-06T02:07:22.312Z,7.00
2018-01-06T02:08:23.395Z,6.05
2018-01-06T02:09:24.508Z,8.50
2018-01-06T02:10:25.611Z,9.73
2018-01-06T02:11:26.688Z,8.82
2018-01-06T02:12:27.777Z,9.25
2018-01-06T02:13:28.867Z,8.20
2018-01-06T02:14:30.702Z,9.25
2018-01-06T02:15:31.805Z,8.48
2018-01-06T02:16:33.647Z,6.85
2018-01-06T02:17:34.731Z,7.87
2018-01-06T02:18:35.819Z,6.72
2018-01-06T02:19:37.699Z,7.28
2018-01-06T02:20:38.803Z,8.05
2018-01-06T02:21:39.937Z,7.85
2018-01-06T02:22:41.016Z,7.05
2018-01-06T02:23:42.099Z,7.18
2018-01-06T02:24:43.973Z,8.07
2018-01-06T02:25:45.064Z,9.30
2018-01-06T02:26:46.142Z,10.15
2018-01-06T02:27:47.230Z,7.85
2018-01-06T02:28:48.314Z,8.55
2018-01-06T02:29:49.406Z,7.85
2018-01-06T02:30:50.500Z,8.40
2018-01-06T02:31:51.589Z,9.52
2018-01-06T02:32:52.712Z,9.90
2018-01-06T02:33:53.831Z,11.63
2018-01-06T02:34:54.914Z,8.20
2018-01-06T02:35:56.011Z,8.27
2018-01-06T02:36:57.092Z,11.70
2018-01-06T02:37:58.199Z,12.35
2018-01-06T02:38:59.298Z,11.65
2018-01-06T02:40:00.447Z,10.40
2018-01-06T02:41:01.540Z,11.70
2018-01-06T02:42:02.627Z,10.85
2018-01-06T02:43:03.760Z,11.90
2018-01-06T02:44:04.850Z,12.27
2018-01-06T02:45:05.945Z,11.02
2018-01-06T02:46:07.033Z,11.02
2018-01-06T02:47:08.139Z,13.00
2018-01-06T02:48:09.237Z,11.95
2018-01-06T02:49:10.319Z,11.30
2018-01-06T02:50:11.427Z,11.93
2018-01-06T02:51:12.523Z,11.55
2018-01-06T02:52:13.649Z,14.98
2018-01-06T02:53:14.749Z,13.70
2018-01-06T02:54:15.843Z,12.98
2018-01-06T02:55:16.932Z,13.50
2018-01-06T02:56:18.758Z,13.05
2018-01-06T02:57:19.863Z,13.30
2018-01-06T02:58:20.960Z,20.23
2018-01-06T02:59:22.772Z,18.42
2018-01-06T03:00:23.859Z,15.50
2018-01-06T03:01:24.947Z,18.15
2018-01-06T03:02:26.039Z,17.00
2018-01-06T03:03:27.115Z,18.30
2018-01-06T03:04:28.208Z,19.70
2018-01-06T03:05:29.314Z,11.60
2018-01-06T03:06:30.403Z,11.95
2018-01-06T03:07:31.512Z,11.20
2018-01-06T03:08:32.611Z,13.02
2018-01-06T03:09:33.707Z,11.68
2018-01-06T03:10:34.816Z,10.75
2018-01-06T03:11:35.882Z,12.98
2018-01-06T03:12:36.995Z,11.48
2018-01-06T03:13:38.067Z,13.55
2018-01-06T03:14:39.160Z,12.93
2018-01-06T03:15:40.251Z,10.75
2018-01-06T03:16:41.355Z,10.65
2018-01-06T03:17:42.463Z,12.63
2018-01-06T03:18:43.530Z,13.32
2018-01-06T03:19:45.353Z,11.80
2018-01-06T03:20:46.456Z,12.43
2018-01-06T03:21:47.546Z,15.73
2018-01-06T03:22:48.653Z,11.48
2018-01-06T03:23:49.755Z,16.17
2018-01-06T03:24:50.847Z,12.82
2018-01-06T03:25:52.671Z,10.40
2018-01-06T03:26:53.771Z,10.65
2018-01-06T03:27:54.853Z,15.27
2018-01-06T03:28:55.941Z,11.70
2018-01-06T03:29:57.024Z,12.93
2018-01-06T03:30:58.123Z,13.68
2018-01-06T03:31:59.200Z,18.27
2018-01-06T03:33:00.271Z,16.10
2018-01-06T03:34:01.343Z,13.25
2018-01-06T03:35:02.432Z,14.48
2018-01-06T03:36:03.535Z,15.75
2018-01-06T03:37:04.650Z,13.93
2018-01-06T03:38:06.455Z,15.45
2018-01-06T03:39:07.559Z,14.00
2018-01-06T03:40:08.667Z,15.88
2018-01-06T03:41:09.781Z,16.65
2018-01-06T03:42:11.654Z,16.40
2018-01-06T03:43:12.726Z,18.45
2018-01-06T03:44:13.857Z,15.45
2018-01-06T03:45:14.955Z,15.57
2018-01-06T03:46:16.031Z,20.27
2018-01-06T03:47:17.133Z,19.65
2018-01-06T03:48:18.212Z,16.73
2018-01-06T03:49:19.299Z,15.30
2018-01-06T03:50:20.376Z,16.10
2018-01-06T03:51:21.472Z,13.23
2018-01-06T03:52:22.543Z,15.40
2018-01-06T03:53:23.643Z,14.85
2018-01-06T03:54:24.760Z,17.62
2018-01-06T03:55:25.837Z,16.35
2018-01-06T03:56:26.933Z,14.02
2018-01-06T03:57:28.008Z,15.27
2018-01-06T03:58:29.086Z,11.63
2018-01-06T03:59:30.195Z,12.50
2018-01-06T04:00:32.032Z,14.20
2018-01-06T04:01:33.868Z,12.60
2018-01-06T04:02:34.963Z,14.82
2018-01-06T04:03:36.040Z,19.20
2018-01-06T04:04:37.138Z,16.95
2018-01-06T04:05:38.223Z,15.23
2018-01-06T04:06:39.319Z,15.27
2018-01-06T04:07:40.410Z,14.35
2018-01-06T04:08:41.491Z,17.23
2018-01-06T04:09:42.583Z,19.80
2018-01-06T04:10:43.655Z,15.10
2018-01-06T04:11:44.751Z,22.02
2018-01-06T04:12:45.837Z,17.02
2018-01-06T04:13:47.660Z,16.55
2018-01-06T04:14:48.759Z,15.38
2018-01-06T04:15:49.843Z,15.30
2018-01-06T04:16:50.950Z,17.23
2018-01-06T04:17:52.050Z,13.93
2018-01-06T04:18:53.127Z,15.50
2018-01-06T04:19:54.243Z,13.95
2018-01-06T04:20:55.348Z,13.80
2018-01-06T04:21:56.447Z,12.05
2018-01-06T04:22:57.550Z,14.60
2018-01-06T04:23:58.638Z,16.45
2018-01-06T04:24:59.732Z,16.95
2018-01-06T04:26:01.623Z,16.52
2018-01-06T04:27:02.733Z,16.50
2018-01-06T04:28:03.803Z,20.35
2018-01-06T04:29:04.883Z,16.00
2018-01-06T04:30:05.986Z,13.20
2018-01-06T04:31:07.088Z,14.65
2018-01-06T04:32:08.191Z,14.30
2018-01-06T04:33:10.027Z,14.90
2018-01-06T04:34:11.121Z,11.45
2018-01-06T04:35:12.947Z,16.95
2018-01-06T04:36:14.035Z,15.88
2018-01-06T04:37:15.167Z,12.95
2018-01-06T04:38:16.261Z,14.38
2018-01-06T04:39:17.343Z,12.15
2018-01-06T04:40:18.424Z,13.65
2018-01-06T04:41:19.527Z,16.27
2018-01-06T04:42:20.628Z,14.55
2018-01-06T04:43:21.718Z,15.63
2018-01-06T04:44:22.790Z,13.35
2018-01-06T04:45:23.882Z,17.15
2018-01-06T04:46:25.002Z,13.45
2018-01-06T04:47:26.083Z,18.08
2018-01-06T04:48:27.163Z,14.95
2018-01-06T04:49:28.251Z,16.50
2018-01-06T04:50:29.378Z,13.25
2018-01-06T04:51:30.475Z,14.70
2018-01-06T04:52:31.580Z,14.25
2018-01-06T04:53:32.688Z,14.20
2018-01-06T04:54:33.783Z,12.85
2018-01-06T04:55:34.870Z,17.83
2018-01-06T04:56:35.995Z,15.38
2018-01-06T04:57:37.062Z,14.05
2018-01-06T04:58:38.180Z,13.88
2018-01-06T04:59:39.999Z,14.18
2018-01-06T05:00:41.080Z,17.40
2018-01-06T05:01:42.156Z,20.23
2018-01-06T05:02:43.243Z,15.23
2018-01-06T05:03:45.076Z,14.23
2018-01-06T05:04:46.887Z,18.73
2018-01-06T05:05:47.982Z,16.83
2018-01-06T05:06:49.075Z,18.58
2018-01-06T05:07:50.172Z,19.30
2018-01-06T05:08:51.244Z,16.25
2018-01-06T05:09:52.328Z,17.23
2018-01-06T05:10:53.406Z,17.05
2018-01-06T05:11:54.491Z,17.50
2018-01-06T05:12:55.582Z,19.87
2018-01-06T05:13:56.671Z,17.27
2018-01-06T05:14:57.763Z,15.38
2018-01-06T05:15:58.869Z,15.27
2018-01-06T05:16:59.932Z,20.92
2018-01-06T05:18:01.047Z,16.80
2018-01-06T05:19:02.871Z,16.40
2018-01-06T05:20:03.956Z,12.98
2018-01-06T05:21:05.796Z,17.40
2018-01-06T05:22:07.635Z,14.27
2018-01-06T05:23:09.479Z,24.40
2018-01-06T05:24:10.561Z,16.98
2018-01-06T05:25:11.643Z,15.98
2018-01-06T05:26:12.731Z,15.40
2018-01-06T05:27:13.824Z,15.60
2018-01-06T05:28:15.639Z,16.77
2018-01-06T05:29:16.715Z,14.20
2018-01-06T05:30:17.836Z,14.55
2018-01-06T05:31:19.666Z,15.18
2018-01-06T05:32:20.751Z,19.00
2018-01-06T05:33:21.865Z,17.08
2018-01-06T05:34:22.942Z,15.95
2018-01-06T05:35:24.031Z,15.90
2018-01-06T05:36:25.122Z,15.02
2018-01-06T05:37:26.200Z,20.05
2018-01-06T05:38:27.292Z,17.08
2018-01-06T05:39:28.371Z,27.73
2018-01-06T05:40:29.468Z,16.65
2018-01-06T05:41:31.291Z,16.95
2018-01-06T05:42:32.379Z,18.40
2018-01-06T05:43:33.483Z,16.20
2018-01-06T05:44:35.307Z,16.20
2018-01-06T05:45:36.391Z,15.52
2018-01-06T05:46:37.488Z,19.98
2018-01-06T05:47:39.323Z,17.27
2018-01-06T05:48:40.416Z,18.37
2018-01-06T05:49:41.520Z,21.52
2018-01-06T05:50:42.619Z,19.90
2018-01-06T05:51:43.701Z,30.92
2018-01-06T05:52:44.783Z,18.25
2018-01-06T05:53:45.871Z,13.15
2018-01-06T05:54:46.979Z,16.62
2018-01-06T05:55:48.063Z,17.77
2018-01-06T05:56:49.139Z,17.17
2018-01-06T05:57:50.967Z,13.00
2018-01-06T05:58:52.076Z,16.48
2018-01-06T05:59:53.206Z,18.77
2018-01-06T06:00:54.291Z,14.45
2018-01-06T06:01:56.104Z,15.93
2018-01-06T06:02:57.183Z,15.50
2018-01-06T06:03:58.268Z,17.62
2018-01-06T06:04:59.359Z,16.00
2018-01-06T06:06:00.456Z,15.88
2018-01-06T06:07:01.531Z,18.55
2018-01-06T06:08:02.623Z,16.60
2018-01-06T06:09:03.745Z,21.05
2018-01-06T06:10:04.843Z,15.63
2018-01-06T06:11:05.931Z,12.95
2018-01-06T06:12:07.751Z,16.15
2018-01-06T06:13:08.827Z,16.12
2018-01-06T06:14:09.968Z,16.77
2018-01-06T06:15:11.068Z,16.67
2018-01-06T06:16:12.979Z,13.38
2018-01-06T06:17:14.067Z,15.95
2018-01-06T06:18:15.259Z,18.65
2018-01-06T06:19:16.358Z,17.30
2018-01-06T06:20:17.455Z,17.23
2018-01-06T06:21:19.284Z,16.15
2018-01-06T06:22:20.363Z,15.35
2018-01-06T06:23:21.446Z,25.27
2018-01-06T06:24:22.540Z,13.35
2018-01-06T06:25:23.611Z,14.07
2018-01-06T06:26:24.691Z,14.52
2018-01-06T06:27:25.772Z,19.08
2018-01-06T06:28:26.861Z,13.75
2018-01-06T06:29:27.947Z,17.65
2018-01-06T06:30:29.791Z,15.30
2018-01-06T06:31:30.880Z,13.80
2018-01-06T06:32:31.968Z,14.60
2018-01-06T06:33:33.047Z,17.45
2018-01-06T06:34:34.140Z,16.70
2018-01-06T06:35:35.981Z,14.38
2018-01-06T06:36:37.056Z,16.77
2018-01-06T06:37:38.127Z,14.60
2018-01-06T06:38:39.224Z,20.90
2018-01-06T06:39:40.327Z,17.83
2018-01-06T06:40:42.175Z,16.15
2018-01-06T06:41:43.992Z,17.33
2018-01-06T06:42:45.087Z,13.45
2018-01-06T06:43:46.176Z,15.88
2018-01-06T06:44:47.303Z,15.73
2018-01-06T06:45:48.378Z,16.23
2018-01-06T06:46:49.465Z,16.85
2018-01-06T06:47:50.539Z,18.30
2018-01-06T06:48:51.632Z,15.20
2018-01-06T06:49:52.735Z,20.77
2018-01-06T06:50:53.815Z,22.15
2018-01-06T06:51:55.635Z,13.27
2018-01-06T06:52:56.716Z,16.12
2018-01-06T06:53:57.825Z,17.85
2018-01-06T06:54:59.673Z,25.70
2018-01-06T06:56:00.748Z,14.45
2018-01-06T06:57:01.859Z,13.05
2018-01-06T06:58:02.963Z,16.23
2018-01-06T06:59:04.059Z,13.68
2018-01-06T07:00:05.167Z,16.10
2018-01-06T07:01:06.266Z,16.42
2018-01-06T07:02:07.379Z,12.82
2018-01-06T07:03:08.480Z,15.60
2018-01-06T07:04:09.564Z,16.62
2018-01-06T07:05:10.651Z,15.20
2018-01-06T07:06:11.747Z,15.15
2018-01-06T07:07:13.576Z,15.05
2018-01-06T07:08:14.693Z,16.77
2018-01-06T07:09:15.816Z,17.17
2018-01-06T07:10:16.911Z,19.70
2018-01-06T07:11:17.991Z,18.75
2018-01-06T07:12:19.096Z,16.40
2018-01-06T07:13:20.186Z,17.73
2018-01-06T07:14:21.276Z,16.27
2018-01-06T07:15:22.357Z,19.17
2018-01-06T07:16:23.436Z,15.82
2018-01-06T07:17:24.632Z,13.18
2018-01-06T07:18:25.751Z,12.95
2018-01-06T07:19:27.609Z,10.68
2018-01-06T07:20:28.702Z,10.52
2018-01-06T07:21:29.782Z,10.50
2018-01-06T07:22:30.991Z,11.98
2018-01-06T07:23:32.066Z,10.88
2018-01-06T07:24:33.162Z,11.88
2018-01-06T07:25:35.111Z,10.73
2018-01-06T07:26:36.961Z,14.40
2018-01-06T07:27:39.100Z,12.20
2018-01-06T07:28:40.192Z,12.52
2018-01-06T07:29:41.317Z,9.68
2018-01-06T07:30:42.390Z,11.05
2018-01-06T07:31:43.479Z,10.85
2018-01-06T07:32:44.543Z,11.60
2018-01-06T07:33:45.613Z,11.05
2018-01-06T07:34:46.679Z,9.90
2018-01-06T07:35:47.763Z,8.98
2018-01-06T07:36:48.844Z,11.30
2018-01-06T07:37:49.984Z,11.12
2018-01-06T07:38:51.079Z,10.00
2018-01-06T07:39:52.924Z,17.23
2018-01-06T07:40:54.015Z,9.85
2018-01-06T07:41:55.088Z,10.90
2018-01-06T07:42:56.195Z,11.38
2018-01-06T07:43:57.228Z,11.40
2018-01-06T07:44:58.291Z,11.20
2018-01-06T07:46:00.119Z,13.50
2018-01-06T07:47:01.211Z,10.82
2018-01-06T07:48:02.343Z,11.85
2018-01-06T07:49:03.452Z,11.77
2018-01-06T07:50:05.035Z,11.00
2018-01-06T07:51:06.139Z,11.75
2018-01-06T07:52:07.275Z,13.05
2018-01-06T07:53:08.355Z,13.95
2018-01-06T07:54:09.442Z,13.52
2018-01-06T07:55:10.516Z,12.18
2018-01-06T07:56:11.599Z,11.65
2018-01-06T07:57:13.461Z,14.43
2018-01-06T07:58:14.542Z,11.82
2018-01-06T07:59:15.611Z,10.48
2018-01-06T08:00:17.420Z,10.40
2018-01-06T08:01:18.759Z,13.60
2018-01-06T08:02:19.827Z,13.70
2018-01-06T08:03:20.900Z,12.60
2018-01-06T08:04:21.983Z,10.68
2018-01-06T08:05:23.060Z,13.20
2018-01-06T08:06:24.142Z,12.65
2018-01-06T08:07:25.207Z,13.18
2018-01-06T08:08:26.279Z,13.55
2018-01-06T08:09:27.355Z,14.05
2018-01-06T08:10:28.442Z,13.90
2018-01-06T08:11:29.532Z,14.95
2018-01-06T08:12:30.631Z,15.85
2018-01-06T08:13:31.707Z,13.82
2018-01-06T08:14:32.802Z,16.10
2018-01-06T08:15:33.891Z,13.43
2018-01-06T08:16:34.976Z,17.23
2018-01-06T08:17:36.083Z,10.43
2018-01-06T08:18:37.195Z,12.52
2018-01-06T08:19:38.355Z,15.10
2018-01-06T08:20:39.462Z,14.38
2018-01-06T08:21:40.552Z,19.77
2018-01-06T08:22:41.636Z,14.00
2018-01-06T08:23:42.723Z,13.85
2018-01-06T08:24:43.787Z,15.25
2018-01-06T08:25:44.883Z,13.77
2018-01-06T08:26:45.971Z,16.40
2018-01-06T08:27:47.091Z,14.20
2018-01-06T08:28:48.188Z,13.55
2018-01-06T08:29:49.279Z,18.73
2018-01-06T08:30:50.368Z,13.60
2018-01-06T08:31:51.477Z,13.95
2018-01-06T08:32:52.567Z,11.63
2018-01-06T08:33:53.655Z,18.15
2018-01-06T08:34:54.750Z,13.82
2018-01-06T08:35:55.831Z,17.80
2018-01-06T08:36:56.920Z,14.48
2018-01-06T08:37:58.744Z,11.80
2018-01-06T08:38:59.819Z,15.65
2018-01-06T08:40:00.889Z,13.35
2018-01-06T08:41:01.968Z,15.05
2018-01-06T08:42:03.816Z,16.23
2018-01-06T08:43:05.645Z,18.62
2018-01-06T08:44:06.752Z,17.40
2018-01-06T08:45:07.847Z,16.12
2018-01-06T08:46:08.972Z,14.43
2018-01-06T08:47:10.059Z,13.93
2018-01-06T08:48:11.135Z,16.37
2018-01-06T08:49:12.955Z,15.25
2018-01-06T08:50:14.039Z,14.90
2018-01-06T08:51:15.126Z,13.00
2018-01-06T08:52:16.212Z,13.70
2018-01-06T08:53:17.307Z,16.70
2018-01-06T08:54:19.159Z,15.20
2018-01-06T08:55:20.339Z,14.00
2018-01-06T08:56:21.444Z,15.95
2018-01-06T08:57:22.536Z,18.08
2018-01-06T08:58:23.635Z,18.87
2018-01-06T08:59:24.788Z,15.20
2018-01-06T09:00:25.885Z,14.65
2018-01-06T09:01:27.016Z,13.95
2018-01-06T09:02:28.154Z,14.85
2018-01-06T09:03:29.260Z,16.70
2018-01-06T09:04:31.083Z,15.85
2018-01-06T09:05:32.195Z,12.15
2018-01-06T09:06:33.282Z,17.00
2018-01-06T09:07:34.407Z,15.02
2018-01-06T09:08:35.492Z,16.40
2018-01-06T09:09:36.568Z,15.38
2018-01-06T09:10:38.400Z,13.82
2018-01-06T09:11:39.507Z,13.05
2018-01-06T09:12:40.667Z,13.15
2018-01-06T09:13:41.760Z,15.10
2018-01-06T09:14:42.856Z,14.40
2018-01-06T09:15:44.671Z,13.60
2018-01-06T09:16:45.765Z,14.43
2018-01-06T09:17:46.839Z,15.02
2018-01-06T09:18:47.924Z,11.98
2018-01-06T09:19:49.015Z,14.02
2018-01-06T09:20:50.123Z,14.70
2018-01-06T09:21:51.212Z,17.35
2018-01-06T09:22:52.291Z,13.52
2018-01-06T09:23:54.143Z,14.32
2018-01-06T09:24:55.225Z,13.40
2018-01-06T09:25:56.312Z,15.18
2018-01-06T09:26:57.394Z,17.87
2018-01-06T09:27:58.496Z,17.95
2018-01-06T09:29:00.356Z,13.45
2018-01-06T09:30:01.477Z,16.83
2018-01-06T09:31:03.344Z,15.88
2018-01-06T09:32:04.447Z,13.73
2018-01-06T09:33:05.531Z,17.17
2018-01-06T09:34:06.711Z,19.10
2018-01-06T09:35:07.789Z,18.58
2018-01-06T09:36:08.875Z,14.30
2018-01-06T09:37:09.990Z,17.52
2018-01-06T09:38:11.067Z,18.25
2018-01-06T09:39:12.914Z,16.02
2018-01-06T09:40:14.004Z,16.17
2018-01-06T09:41:15.093Z,16.40
2018-01-06T09:42:16.911Z,16.80
2018-01-06T09:43:18.018Z,15.85
2018-01-06T09:44:19.099Z,15.15
2018-01-06T09:45:20.945Z,15.63
2018-01-06T09:46:22.019Z,19.23
2018-01-06T09:47:23.114Z,15.55
2018-01-06T09:48:24.935Z,14.43
2018-01-06T09:49:26.005Z,14.60
2018-01-06T09:50:27.083Z,17.35
2018-01-06T09:51:28.176Z,16.10
2018-01-06T09:52:29.283Z,17.20
2018-01-06T09:53:30.351Z,15.60
2018-01-06T09:54:31.440Z,18.62
2018-01-06T09:55:32.517Z,26.62
2018-01-06T09:56:33.603Z,16.75
2018-01-06T09:57:34.686Z,17.20
2018-01-06T09:58:35.767Z,19.40
2018-01-06T09:59:36.852Z,18.50
2018-01-06T10:00:37.952Z,15.40
2018-01-06T10:01:39.780Z,23.45
2018-01-06T10:02:41.085Z,15.00
2018-01-06T10:03:42.202Z,15.38
2018-01-06T10:04:43.271Z,14.40
2018-01-06T10:05:44.347Z,14.50
2018-01-06T10:06:45.423Z,15.43
2018-01-06T10:07:46.503Z,16.55
2018-01-06T10:08:47.599Z,17.35
2018-01-06T10:09:48.730Z,15.88
2018-01-06T10:10:50.587Z,15.13
2018-01-06T10:11:51.680Z,16.52
2018-01-06T10:12:52.755Z,16.05
2018-01-06T10:13:53.825Z,15.70
2018-01-06T10:14:55.696Z,13.25
2018-01-06T10:15:57.494Z,19.30
2018-01-06T10:16:58.570Z,18.52
2018-01-06T10:17:59.673Z,16.87
2018-01-06T10:19:01.495Z,16.00
2018-01-06T10:20:02.607Z,14.55
2018-01-06T10:21:03.684Z,13.95
2018-01-06T10:22:05.021Z,22.08
2018-01-06T10:23:07.172Z,15.98
2018-01-06T10:24:08.271Z,13.40
2018-01-06T10:25:09.375Z,19.50
2018-01-06T10:26:10.466Z,19.80
2018-01-06T10:27:11.596Z,18.23
2018-01-06T10:28:12.672Z,13.45
2018-01-06T10:29:13.755Z,16.87
2018-01-06T10:30:14.868Z,15.48
2018-01-06T10:31:15.958Z,17.17
2018-01-06T10:32:17.795Z,15.93
2018-01-06T10:33:18.875Z,17.10
2018-01-06T10:34:19.963Z,16.30
2018-01-06T10:35:21.070Z,15.07
2018-01-06T10:36:22.159Z,19.05
2018-01-06T10:37:23.247Z,13.90
2018-01-06T10:38:24.343Z,17.50
2018-01-06T10:39:25.452Z,15.82
2018-01-06T10:40:27.280Z,14.77
2018-01-06T10:41:29.123Z,14.55
2018-01-06T10:42:30.956Z,19.52
2018-01-06T10:43:32.060Z,15.73
2018-01-06T10:44:33.155Z,14.90
2018-01-06T10:45:34.247Z,15.50
2018-01-06T10:46:35.319Z,16.92
2018-01-06T10:47:37.152Z,17.85
2018-01-06T10:48:38.983Z,17.55
2018-01-06T10:49:40.063Z,23.90
2018-01-06T10:50:41.166Z,16.10
2018-01-06T10:51:42.260Z,19.55
2018-01-06T10:52:43.416Z,13.80
2018-01-06T10:53:44.499Z,16.83
2018-01-06T10:54:45.580Z,15.32
2018-01-06T10:55:46.732Z,16.77
2018-01-06T10:56:48.543Z,13.73
2018-01-06T10:57:49.624Z,14.43
2018-01-06T10:58:51.440Z,18.10
2018-01-06T10:59:52.563Z,20.15
2018-01-06T11:01:00.579Z,17.02
2018-01-06T11:02:05.508Z,15.15
2018-01-06T11:03:06.591Z,15.65
2018-01-06T11:04:08.403Z,11.73
2018-01-06T11:05:10.270Z,16.35
2018-01-06T11:06:11.415Z,12.95
2018-01-06T11:07:13.211Z,16.12
2018-01-06T11:08:14.369Z,15.80
2018-01-06T11:09:15.532Z,13.30
2018-01-06T11:10:16.627Z,14.55
2018-01-06T11:11:18.467Z,14.05
2018-01-06T11:12:20.313Z,15.50
2018-01-06T11:13:21.424Z,17.27
2018-01-06T11:14:22.522Z,14.70
2018-01-06T11:15:23.603Z,15.10
2018-01-06T11:16:24.727Z,14.95
2018-01-06T11:17:25.880Z,13.07
2018-01-06T11:18:26.985Z,14.60
2018-01-06T11:19:28.091Z,13.82
2018-01-06T11:20:29.219Z,12.68
2018-01-06T11:21:30.330Z,16.17
2018-01-06T11:22:31.417Z,13.85
2018-01-06T11:23:32.564Z,15.75
2018-01-06T11:24:33.658Z,17.95
2018-01-06T11:25:34.775Z,18.50
2018-01-06T11:26:35.876Z,15.02
2018-01-06T11:27:36.979Z,19.75
2018-01-06T11:28:38.128Z,17.15
2018-01-06T11:29:39.199Z,15.30
2018-01-06T11:30:41.028Z,17.40
2018-01-06T11:31:42.884Z,16.20
2018-01-06T11:32:43.967Z,14.90
2018-01-06T11:33:45.058Z,9.80
2018-01-06T11:34:46.151Z,10.63
2018-01-06T11:35:47.254Z,8.90
2018-01-06T11:36:48.344Z,9.60
2018-01-06T11:37:49.418Z,11.55
2018-01-06T11:38:50.538Z,12.63
2018-01-06T11:39:52.347Z,10.73
2018-01-06T11:40:53.417Z,11.77
2018-01-06T11:41:55.240Z,16.90
2018-01-06T11:42:56.327Z,12.77
2018-01-06T11:43:57.406Z,13.35
2018-01-06T11:44:59.238Z,9.98
2018-01-06T11:46:00.304Z,11.32
2018-01-06T11:47:02.124Z,11.05
2018-01-06T11:48:03.200Z,13.50
2018-01-06T11:49:04.296Z,11.12
2018-01-06T11:50:05.410Z,11.65
2018-01-06T11:51:06.474Z,8.93
2018-01-06T11:52:08.267Z,12.05
2018-01-06T11:53:09.323Z,14.40
2018-01-06T11:54:10.389Z,11.63
2018-01-06T11:55:12.214Z,13.90
2018-01-06T11:56:13.317Z,11.10
2018-01-06T11:57:14.366Z,12.23
2018-01-06T11:58:15.438Z,10.02
2018-01-06T11:59:17.247Z,12.85
2018-01-06T12:00:18.328Z,11.98
2018-01-06T12:01:19.400Z,12.60
2018-01-06T12:02:20.464Z,13.52
2018-01-06T12:03:21.527Z,13.95
2018-01-06T12:04:22.598Z,11.65
2018-01-06T12:05:23.655Z,11.20
2018-01-06T12:06:24.742Z,9.85
2018-01-06T12:07:25.805Z,9.65
2018-01-06T12:08:26.883Z,10.52
2018-01-06T12:09:27.980Z,11.05
2018-01-06T12:10:29.055Z,8.93
2018-01-06T12:11:30.142Z,11.93
2018-01-06T12:12:31.205Z,13.45
2018-01-06T12:13:33.011Z,15.00
2018-01-06T12:14:34.075Z,8.23
2018-01-06T12:15:35.925Z,7.87
2018-01-06T12:16:37.044Z,10.90
2018-01-06T12:17:38.071Z,9.88
2018-01-06T12:18:39.147Z,8.98
2018-01-06T12:19:40.230Z,8.75
2018-01-06T12:20:41.315Z,8.20
2018-01-06T12:21:42.383Z,7.82
2018-01-06T12:22:43.471Z,8.98
2018-01-06T12:23:44.543Z,9.05
2018-01-06T12:24:45.648Z,8.68
2018-01-06T12:25:46.759Z,6.10
2018-01-06T12:26:48.599Z,6.30
2018-01-06T12:27:49.671Z,8.23
2018-01-06T12:28:50.762Z,6.50
2018-01-06T12:29:53.026Z,6.80
2018-01-06T12:30:54.107Z,6.68
2018-01-06T12:31:55.222Z,6.50
2018-01-06T12:32:56.287Z,5.32
2018-01-06T12:33:57.355Z,6.57
2018-01-06T12:34:59.193Z,4.90
2018-01-06T12:36:00.243Z,5.55
2018-01-06T12:37:01.320Z,6.00
2018-01-06T12:38:02.407Z,5.90
2018-01-06T12:39:04.270Z,5.03
2018-01-06T12:40:06.067Z,4.95
2018-01-06T12:41:07.175Z,6.30
2018-01-06T12:42:08.257Z,4.82
2018-01-06T12:43:09.335Z,6.40
2018-01-06T12:44:10.415Z,6.82
2018-01-06T12:45:11.498Z,4.80
2018-01-06T12:46:12.584Z,5.07
2018-01-06T12:47:13.671Z,6.60
2018-01-06T12:48:14.739Z,8.70
2018-01-06T12:49:15.827Z,6.25
2018-01-06T12:50:16.898Z,5.78
2018-01-06T12:51:17.980Z,6.55
